Buhl, Idaho
Current Conditions -  °F | °C
As of 8:53 PM on Sunday 23 Nov 2014 (Local Time) from KTWF Reporting Station
Clear Clear  
Wind Chill: 26°   Ceiling: Unl
Heat Index: 34°   Visibility: 10mi
Dew Point: 24°   Wind: 10mph
Humidity: 67%   Direction: 180°S
Pressure: 30.19"   Gusts: NA
Location:  42.6°N, 114.76°W
Report Text: KTWF 240353Z AUTO 18009KT 10SM CLR 01/M04 A3019 RMK AO2 SLP230 T00111044
Loading
Personal Weather Stations






























Interactive Weather Map New forecast layout! Learn more

10-Day Weather Forecast

Advertisements
Track Severe Weather on mobile